createdAt,value
2023-03-17T00:02:07.355Z,97516.16
2023-03-17T00:04:35.365Z,97526.59
2023-03-17T00:07:06.423Z,97523.09
2023-03-17T00:09:34.436Z,97517.84
2023-03-17T00:12:02.731Z,97527.16
2023-03-17T00:14:31.508Z,97536.31
2023-03-17T00:16:59.562Z,97528.28
2023-03-17T00:19:32.716Z,97525.56
2023-03-17T00:22:01.378Z,97515.69
2023-03-17T00:24:31.293Z,97516.50
2023-03-17T00:27:00.322Z,97517.31
2023-03-17T00:29:28.373Z,97517.56
2023-03-17T00:31:58.960Z,97519.16
2023-03-17T00:34:27.759Z,97515.72
2023-03-17T00:36:56.105Z,97526.72
2023-03-17T00:39:25.423Z,97493.13
2023-03-17T00:41:55.294Z,97503.34
2023-03-17T00:44:24.305Z,97493.94
2023-03-17T00:46:52.580Z,97489.38
2023-03-17T00:49:24.501Z,97496.34
2023-03-17T00:51:53.061Z,97483.22
2023-03-17T00:54:22.141Z,97475.13
2023-03-17T00:56:53.218Z,97495.75
2023-03-17T00:59:28.981Z,97496.28
2023-03-17T01:01:58.143Z,97482.09
2023-03-17T01:04:26.924Z,97472.19
2023-03-17T01:06:55.962Z,97478.63
2023-03-17T01:09:29.109Z,97469.75
2023-03-17T01:11:57.105Z,97476.75
2023-03-17T01:14:26.713Z,97476.19
2023-03-17T01:16:55.596Z,97478.59
2023-03-17T01:19:23.886Z,97464.91
2023-03-17T01:21:52.427Z,97454.19
2023-03-17T01:24:21.478Z,97462.22
2023-03-17T01:26:49.706Z,97460.59
2023-03-17T01:29:18.218Z,97449.31
2023-03-17T01:31:48.153Z,97443.16
2023-03-17T01:34:16.550Z,97448.25
2023-03-17T01:36:44.700Z,97435.88
2023-03-17T01:39:13.531Z,97438.88
2023-03-17T01:41:41.423Z,97445.53
2023-03-17T01:44:17.273Z,97439.66
2023-03-17T01:46:47.533Z,97447.16
2023-03-17T01:49:21.588Z,97437.47
2023-03-17T01:51:58.698Z,97440.47
2023-03-17T01:54:32.248Z,97446.63
2023-03-17T01:57:04.931Z,97429.94
2023-03-17T01:59:38.373Z,97425.03
2023-03-17T02:02:12.137Z,97430.50
2023-03-17T02:04:40.720Z,97439.66
2023-03-17T02:07:10.173Z,97445.50
2023-03-17T02:09:41.800Z,97426.97
2023-03-17T02:12:11.966Z,97422.72
2023-03-17T02:14:40.418Z,97434.44
2023-03-17T02:17:09.952Z,97417.56
2023-03-17T02:19:38.948Z,97418.56
2023-03-17T02:22:08.861Z,97402.69
2023-03-17T02:24:40.657Z,97424.13
2023-03-17T02:27:13.389Z,97415.84
2023-03-17T02:29:42.298Z,97414.41
2023-03-17T02:32:11.074Z,97408.69
2023-03-17T02:34:39.365Z,97413.34
2023-03-17T02:37:09.263Z,97397.28
2023-03-17T02:39:37.783Z,97391.06
2023-03-17T02:42:07.165Z,97379.47
2023-03-17T02:44:35.633Z,97390.97
2023-03-17T02:47:04.351Z,97374.91
2023-03-17T02:49:34.312Z,97391.44
2023-03-17T02:52:02.896Z,97381.59
2023-03-17T02:54:32.744Z,97395.81
2023-03-17T02:57:01.913Z,97404.06
2023-03-17T02:59:29.906Z,97393.59
2023-03-17T03:01:57.986Z,97383.53
2023-03-17T03:04:26.619Z,97373.84
2023-03-17T03:06:55.061Z,97388.34
2023-03-17T03:09:24.646Z,97393.97
2023-03-17T03:11:54.045Z,97379.75
2023-03-17T03:14:22.216Z,97377.09
2023-03-17T03:16:50.765Z,97367.41
2023-03-17T03:19:18.988Z,97366.31
2023-03-17T03:21:47.240Z,97362.00
2023-03-17T03:24:15.637Z,97361.72
2023-03-17T03:26:43.899Z,97376.78
2023-03-17T03:29:13.790Z,97348.09
2023-03-17T03:31:41.776Z,97364.69
2023-03-17T03:34:10.166Z,97370.06
2023-03-17T03:36:38.950Z,97368.72
2023-03-17T03:39:08.050Z,97372.38
2023-03-17T03:41:36.971Z,97372.50
2023-03-17T03:44:05.660Z,97378.81
2023-03-17T03:46:35.309Z,97368.72
2023-03-17T03:49:03.705Z,97369.09
2023-03-17T03:51:32.528Z,97363.09
2023-03-17T03:54:01.390Z,97372.38
2023-03-17T03:56:29.286Z,97367.31
2023-03-17T03:58:58.025Z,97357.41
2023-03-17T04:01:25.934Z,97360.31
2023-03-17T04:03:55.492Z,97362.81
2023-03-17T04:06:24.284Z,97356.03
2023-03-17T04:08:52.566Z,97347.25
2023-03-17T04:11:21.912Z,97340.03
2023-03-17T04:13:50.324Z,97331.06
2023-03-17T04:16:18.447Z,97357.81
2023-03-17T04:18:46.562Z,97344.06
2023-03-17T04:21:18.881Z,97346.06
2023-03-17T04:23:47.527Z,97339.66
2023-03-17T04:26:17.457Z,97361.88
2023-03-17T04:28:46.181Z,97360.50
2023-03-17T04:31:15.218Z,97348.84
2023-03-17T04:33:43.623Z,97354.06
2023-03-17T04:36:21.156Z,97358.09
2023-03-17T04:38:49.964Z,97350.09
2023-03-17T04:41:18.602Z,97355.50
2023-03-17T04:43:47.718Z,97345.50
2023-03-17T04:46:16.726Z,97334.09
2023-03-17T04:48:44.893Z,97334.78
2023-03-17T04:51:13.550Z,97343.59
2023-03-17T04:53:43.338Z,97342.28
2023-03-17T04:56:12.087Z,97348.78
2023-03-17T04:58:40.373Z,97353.84
2023-03-17T05:01:09.255Z,97341.81
2023-03-17T05:03:38.519Z,97344.53
2023-03-17T05:06:07.314Z,97337.56
2023-03-17T05:08:35.544Z,97348.41
2023-03-17T05:11:05.912Z,97352.31
2023-03-17T05:13:35.865Z,97367.31
2023-03-17T05:16:04.158Z,97359.47
2023-03-17T05:18:32.956Z,97351.78
2023-03-17T05:21:01.078Z,97358.00
2023-03-17T05:23:30.012Z,97354.28
2023-03-17T05:25:59.931Z,97346.69
2023-03-17T05:28:30.058Z,97350.25
2023-03-17T05:30:58.406Z,97346.16
2023-03-17T05:33:28.345Z,97356.38
2023-03-17T05:35:57.957Z,97359.81
2023-03-17T05:38:26.899Z,97348.84
2023-03-17T05:40:55.412Z,97350.06
2023-03-17T05:43:23.804Z,97357.56
2023-03-17T05:45:53.746Z,97356.50
2023-03-17T05:48:23.190Z,97353.00
2023-03-17T05:50:52.284Z,97362.25
2023-03-17T05:53:20.895Z,97360.34
2023-03-17T05:55:49.846Z,97348.31
2023-03-17T05:58:18.886Z,97328.94
2023-03-17T06:00:47.249Z,97332.91
2023-03-17T06:03:17.422Z,97340.47
2023-03-17T06:05:46.156Z,97350.84
2023-03-17T06:08:15.061Z,97356.50
2023-03-17T06:10:44.281Z,97361.28
2023-03-17T06:13:13.023Z,97360.19
2023-03-17T06:15:42.395Z,97325.38
2023-03-17T06:18:11.719Z,97353.66
2023-03-17T06:20:43.115Z,97345.34
2023-03-17T06:23:11.960Z,97356.59
2023-03-17T06:25:43.366Z,97359.00
2023-03-17T06:28:13.190Z,97373.63
2023-03-17T06:30:41.910Z,97355.16
2023-03-17T06:33:22.511Z,97369.63
2023-03-17T06:38:46.606Z,97386.19
2023-03-17T06:41:14.995Z,97418.59
2023-03-17T06:43:43.524Z,97462.38
2023-03-17T06:46:12.701Z,97480.75
2023-03-17T06:48:40.974Z,97475.34
2023-03-17T06:51:11.272Z,97453.84
2023-03-17T06:53:42.358Z,97432.97
2023-03-17T06:56:23.541Z,97419.69
2023-03-17T06:58:56.638Z,97428.69
2023-03-17T07:01:25.109Z,97444.38
2023-03-17T07:03:54.813Z,97446.59
2023-03-17T07:06:25.355Z,97460.72
2023-03-17T07:08:53.956Z,97504.16
2023-03-17T07:11:24.814Z,97536.84
2023-03-17T07:13:54.384Z,97536.84
2023-03-17T07:16:22.905Z,97521.09
2023-03-17T07:18:51.877Z,97496.53
2023-03-17T07:21:20.738Z,97510.47
2023-03-17T07:23:55.583Z,97470.78
2023-03-17T07:26:25.363Z,97441.88
2023-03-17T07:28:54.014Z,97467.25
2023-03-17T07:31:23.981Z,97436.28
2023-03-17T07:33:52.980Z,97418.84
2023-03-17T07:36:21.701Z,97441.66
2023-03-17T07:38:52.105Z,97437.34
2023-03-17T07:41:22.314Z,97438.41
2023-03-17T07:43:50.641Z,97461.94
2023-03-17T07:46:19.825Z,97497.97
2023-03-17T07:48:48.370Z,97502.56
2023-03-17T07:51:19.682Z,97486.00
2023-03-17T07:53:48.079Z,97536.47
2023-03-17T07:56:18.882Z,97539.50
2023-03-17T07:58:47.788Z,97522.81
2023-03-17T08:01:16.781Z,97537.13
2023-03-17T08:03:45.466Z,97509.53
2023-03-17T08:06:14.725Z,97551.31
2023-03-17T08:08:44.363Z,97525.03
2023-03-17T08:11:12.673Z,97534.31
2023-03-17T08:13:45.501Z,97536.94
2023-03-17T08:16:15.906Z,97553.25
2023-03-17T08:18:47.775Z,97526.22
2023-03-17T08:21:16.977Z,97535.81
2023-03-17T08:23:46.267Z,97513.34
2023-03-17T08:26:16.690Z,97541.09
2023-03-17T08:28:46.656Z,97557.06
2023-03-17T08:31:17.712Z,97529.97
2023-03-17T08:33:49.009Z,97539.53
2023-03-17T08:36:19.240Z,97528.53
2023-03-17T08:38:48.892Z,97516.78
2023-03-17T08:41:20.701Z,97575.53
2023-03-17T08:43:50.952Z,97565.25
2023-03-17T08:46:22.306Z,97546.44
2023-03-17T08:48:52.557Z,97599.16
2023-03-17T08:51:24.607Z,97559.63
2023-03-17T08:53:54.402Z,97566.19
2023-03-17T08:56:24.102Z,97555.78
2023-03-17T08:58:54.663Z,97570.91
2023-03-17T09:01:25.041Z,97573.41
2023-03-17T09:03:55.505Z,97535.91
2023-03-17T09:06:27.428Z,97565.03
2023-03-17T09:08:56.360Z,97516.66
2023-03-17T09:11:27.101Z,97500.09
2023-03-17T09:16:49.340Z,97478.72
2023-03-17T09:19:21.934Z,97445.28
2023-03-17T09:24:21.228Z,97458.94
2023-03-17T09:26:53.764Z,97455.44
2023-03-17T09:29:28.477Z,97450.25
2023-03-17T09:31:58.566Z,97465.94
2023-03-17T09:34:35.443Z,97510.56
2023-03-17T09:37:05.586Z,97467.22
2023-03-17T09:39:37.017Z,97472.41
2023-03-17T09:42:19.030Z,97450.28
2023-03-17T09:45:08.580Z,97444.66
2023-03-17T09:48:07.460Z,97446.31
2023-03-17T09:50:46.483Z,97442.44
2023-03-17T09:53:23.283Z,97415.72
2023-03-17T09:55:57.267Z,97470.03
2023-03-17T09:58:35.171Z,97439.25
2023-03-17T10:01:06.754Z,97423.31
2023-03-17T10:03:39.215Z,97432.19
2023-03-17T10:06:31.022Z,97429.44
2023-03-17T10:09:04.390Z,97414.00
2023-03-17T10:11:45.512Z,97425.34
2023-03-17T10:14:28.997Z,97424.50
2023-03-17T10:17:03.825Z,97421.84
2023-03-17T10:19:36.609Z,97419.75
2023-03-17T10:22:14.860Z,97438.34
2023-03-17T10:24:49.925Z,97466.78
2023-03-17T10:27:20.071Z,97440.50
2023-03-17T10:29:48.777Z,97422.56
2023-03-17T10:32:18.539Z,97446.53
2023-03-17T10:34:50.131Z,97459.19
2023-03-17T10:37:20.474Z,97436.97
2023-03-17T10:39:51.117Z,97458.16
2023-03-17T10:42:25.219Z,97480.34
2023-03-17T10:44:56.880Z,97468.50
2023-03-17T10:47:33.300Z,97441.59
2023-03-17T10:50:06.425Z,97444.59
2023-03-17T10:52:40.836Z,97430.84
2023-03-17T10:55:14.764Z,97444.94
2023-03-17T10:57:53.212Z,97436.00
2023-03-17T11:00:23.823Z,97435.06
2023-03-17T11:02:58.436Z,97441.97
2023-03-17T11:05:29.476Z,97445.97
2023-03-17T11:08:10.477Z,97448.13
2023-03-17T11:10:42.105Z,97422.06
2023-03-17T11:13:10.742Z,97417.22
2023-03-17T11:15:44.629Z,97426.03
2023-03-17T11:18:21.339Z,97413.59
2023-03-17T11:20:55.658Z,97410.88
2023-03-17T11:23:39.813Z,97416.53
2023-03-17T11:26:24.800Z,97412.88
2023-03-17T11:29:01.793Z,97385.66
2023-03-17T11:31:36.474Z,97407.69
2023-03-17T11:34:09.811Z,97389.88
2023-03-17T11:36:55.243Z,97404.06
2023-03-17T11:39:28.386Z,97408.34
2023-03-17T11:42:10.295Z,97404.06
2023-03-17T11:45:04.871Z,97399.06
2023-03-17T11:47:43.770Z,97409.13
2023-03-17T11:50:28.338Z,97410.97
2023-03-17T11:53:20.602Z,97406.28
2023-03-17T11:55:57.418Z,97406.75
2023-03-17T11:58:34.102Z,97403.75
2023-03-17T12:01:09.230Z,97406.72
2023-03-17T12:03:43.221Z,97424.16
2023-03-17T12:06:20.540Z,97411.66
2023-03-17T12:08:53.924Z,97403.81
2023-03-17T12:11:28.150Z,97387.50
2023-03-17T12:14:01.499Z,97401.38
2023-03-17T12:16:35.974Z,97395.41
2023-03-17T12:19:13.093Z,97410.03
2023-03-17T12:21:50.296Z,97408.25
2023-03-17T12:24:24.464Z,97411.84
2023-03-17T12:26:59.434Z,97408.28
2023-03-17T12:29:41.468Z,97408.16
2023-03-17T12:32:15.674Z,97401.34
2023-03-17T12:34:51.442Z,97398.00
2023-03-17T12:37:22.094Z,97402.66
2023-03-17T12:39:59.265Z,97418.44
2023-03-17T12:42:38.518Z,97401.25
2023-03-17T12:45:33.275Z,97408.41
2023-03-17T12:48:27.608Z,97389.41
2023-03-17T12:51:44.072Z,97406.34
2023-03-17T12:54:21.511Z,97415.13
2023-03-17T12:56:51.689Z,97394.13
2023-03-17T12:59:22.589Z,97388.59
2023-03-17T13:01:59.042Z,97372.06
2023-03-17T13:04:32.493Z,97371.72
2023-03-17T13:07:07.594Z,97368.28
2023-03-17T13:09:49.865Z,97359.84
2023-03-17T13:12:59.834Z,97355.50
2023-03-17T13:15:55.392Z,97355.66
2023-03-17T13:18:40.356Z,97335.34
2023-03-17T13:21:14.942Z,97348.94
2023-03-17T13:23:45.746Z,97341.66
2023-03-17T13:26:21.007Z,97349.78
2023-03-17T13:28:52.292Z,97352.66
2023-03-17T13:31:38.588Z,97334.63
2023-03-17T13:34:18.889Z,97371.13
2023-03-17T13:37:02.719Z,97358.13
2023-03-17T13:40:01.109Z,97376.88
2023-03-17T13:42:44.978Z,97364.00
2023-03-17T13:45:35.816Z,97359.53
2023-03-17T13:48:32.248Z,97361.38
2023-03-17T13:51:21.355Z,97366.34
2023-03-17T13:53:54.553Z,97352.81
2023-03-17T13:56:31.002Z,97342.81
2023-03-17T13:59:07.889Z,97347.41
2023-03-17T14:01:42.988Z,97354.25
2023-03-17T14:04:22.215Z,97328.91
2023-03-17T14:06:54.941Z,97338.38
2023-03-17T14:09:33.344Z,97349.09
2023-03-17T14:12:07.260Z,97348.47
2023-03-17T14:14:47.514Z,97341.50
2023-03-17T14:17:20.895Z,97359.09
2023-03-17T14:20:04.462Z,97340.59
2023-03-17T14:22:33.235Z,97339.13
2023-03-17T14:25:03.820Z,97344.94
2023-03-17T14:27:35.934Z,97325.28
2023-03-17T14:30:17.827Z,97321.22
2023-03-17T14:32:50.002Z,97328.09
2023-03-17T14:35:18.630Z,97297.06
2023-03-17T14:37:46.948Z,97299.31
2023-03-17T14:40:23.940Z,97293.44
2023-03-17T14:42:52.229Z,97302.31
2023-03-17T14:45:33.631Z,97295.81
2023-03-17T14:48:13.847Z,97314.81
2023-03-17T14:50:52.797Z,97296.38
2023-03-17T14:53:24.157Z,97299.38
2023-03-17T14:55:54.455Z,97293.47
2023-03-17T14:58:26.573Z,97286.22
2023-03-17T15:00:59.911Z,97288.81
2023-03-17T15:03:31.691Z,97279.38
2023-03-17T15:06:22.968Z,97254.38
2023-03-17T15:08:52.666Z,97277.63
2023-03-17T15:11:27.255Z,97284.25
2023-03-17T15:13:58.152Z,97291.25
2023-03-17T15:16:31.186Z,97272.81
2023-03-17T15:19:07.382Z,97286.69
2023-03-17T15:21:40.659Z,97264.31
2023-03-17T15:24:26.056Z,97255.38
2023-03-17T15:27:01.345Z,97274.56
2023-03-17T15:29:30.258Z,97271.34
2023-03-17T15:32:08.699Z,97264.47
2023-03-17T15:34:36.853Z,97270.16
2023-03-17T15:37:05.026Z,97295.94
2023-03-17T15:39:34.018Z,97285.25
2023-03-17T15:42:02.090Z,97270.75
2023-03-17T15:44:30.070Z,97274.72
2023-03-17T15:46:58.683Z,97278.28
2023-03-17T15:49:28.376Z,97247.38
2023-03-17T15:51:56.500Z,97251.28
2023-03-17T15:54:25.105Z,97252.09
2023-03-17T15:56:53.382Z,97255.09
2023-03-17T15:59:24.407Z,97253.88
2023-03-17T16:01:55.498Z,97240.28
2023-03-17T16:04:24.068Z,97242.88
2023-03-17T16:06:53.572Z,97248.06
2023-03-17T16:09:22.354Z,97240.66
2023-03-17T16:11:52.259Z,97236.00
2023-03-17T16:14:20.540Z,97231.50
2023-03-17T16:16:49.254Z,97209.53
2023-03-17T16:19:21.415Z,97235.94
2023-03-17T16:21:50.920Z,97208.53
2023-03-17T16:24:25.526Z,97219.72
2023-03-17T16:26:54.963Z,97203.00
2023-03-17T16:29:23.545Z,97209.09
2023-03-17T16:31:52.477Z,97201.03
2023-03-17T16:34:23.167Z,97190.41
2023-03-17T16:36:51.972Z,97192.38
2023-03-17T16:39:23.943Z,97188.88
2023-03-17T16:41:53.512Z,97189.13
2023-03-17T16:44:23.567Z,97174.00
2023-03-17T16:46:52.204Z,97180.28
2023-03-17T16:49:23.101Z,97193.66
2023-03-17T16:51:51.412Z,97188.91
2023-03-17T16:54:20.173Z,97193.56
2023-03-17T16:56:49.941Z,97170.66
2023-03-17T16:59:22.513Z,97180.13
2023-03-17T17:01:50.969Z,97166.97
2023-03-17T17:04:19.069Z,97176.72
2023-03-17T17:06:47.741Z,97163.31
2023-03-17T17:09:16.036Z,97160.81
2023-03-17T17:11:44.718Z,97156.91
2023-03-17T17:14:14.768Z,97163.00
2023-03-17T17:16:43.176Z,97153.78
2023-03-17T17:19:18.067Z,97145.91
2023-03-17T17:21:46.531Z,97141.06
2023-03-17T17:24:15.585Z,97133.97
2023-03-17T17:26:44.315Z,97135.44
2023-03-17T17:29:13.833Z,97121.81
2023-03-17T17:31:42.139Z,97127.16
2023-03-17T17:34:11.070Z,97142.28
2023-03-17T17:36:39.376Z,97140.72
2023-03-17T17:39:07.656Z,97139.44
2023-03-17T17:41:36.485Z,97141.28
2023-03-17T17:44:05.677Z,97136.38
2023-03-17T17:46:35.523Z,97145.25
2023-03-17T17:49:04.121Z,97131.25
2023-03-17T17:51:32.871Z,97136.81
2023-03-17T17:54:00.974Z,97141.91
2023-03-17T17:56:31.377Z,97127.38
2023-03-17T17:58:59.453Z,97140.16
2023-03-17T18:01:27.869Z,97142.88
2023-03-17T18:03:57.900Z,97146.63
2023-03-17T18:06:26.228Z,97130.00
2023-03-17T18:08:55.382Z,97144.19
2023-03-17T18:11:23.816Z,97132.72
2023-03-17T18:13:52.674Z,97125.84
2023-03-17T18:16:21.032Z,97132.63
2023-03-17T18:18:49.504Z,97141.09
2023-03-17T18:21:19.277Z,97129.34
2023-03-17T18:23:49.203Z,97133.53
2023-03-17T18:26:18.710Z,97138.47
2023-03-17T18:28:47.854Z,97130.44
2023-03-17T18:31:20.820Z,97129.84
2023-03-17T18:33:52.465Z,97127.44
2023-03-17T18:36:23.163Z,97113.97
2023-03-17T18:38:52.130Z,97117.69
2023-03-17T18:41:20.344Z,97113.28
2023-03-17T18:43:49.373Z,97122.19
2023-03-17T18:46:17.624Z,97100.41
2023-03-17T18:48:45.955Z,97123.25
2023-03-17T18:51:14.737Z,97117.28
2023-03-17T18:53:44.265Z,97109.84
2023-03-17T18:56:12.672Z,97107.28
2023-03-17T18:58:41.426Z,97108.19
2023-03-17T19:01:09.502Z,97110.22
2023-03-17T19:03:38.346Z,97109.72
2023-03-17T19:06:11.785Z,97109.31
2023-03-17T19:08:40.611Z,97120.94
2023-03-17T19:11:12.085Z,97108.69
2023-03-17T19:13:40.709Z,97102.09
2023-03-17T19:16:10.526Z,97104.16
2023-03-17T19:18:42.040Z,97099.91
2023-03-17T19:21:11.364Z,97095.81
2023-03-17T19:23:39.357Z,97102.44
2023-03-17T19:26:10.763Z,97098.09
2023-03-17T19:28:38.877Z,97090.59
2023-03-17T19:31:07.468Z,97095.38
2023-03-17T19:33:36.077Z,97099.75
2023-03-17T19:36:08.691Z,97101.16
2023-03-17T19:38:37.611Z,97098.78
2023-03-17T19:41:06.783Z,97105.09
2023-03-17T19:43:41.244Z,97112.13
2023-03-17T19:46:11.420Z,97115.75
2023-03-17T19:48:40.776Z,97117.81
2023-03-17T19:51:09.458Z,97100.78
2023-03-17T19:53:39.051Z,97135.31
2023-03-17T19:56:08.222Z,97122.22
2023-03-17T19:58:38.422Z,97121.09
2023-03-17T20:01:09.067Z,97117.66
2023-03-17T20:03:39.360Z,97116.34
2023-03-17T20:06:07.616Z,97113.78
2023-03-17T20:08:36.824Z,97114.59
2023-03-17T20:11:06.042Z,97097.69
2023-03-17T20:13:35.491Z,97100.91
2023-03-17T20:16:06.389Z,97086.88
2023-03-17T20:18:36.045Z,97094.19
2023-03-17T20:21:08.198Z,97093.69
2023-03-17T20:23:37.842Z,97103.19
2023-03-17T20:26:07.392Z,97094.19
2023-03-17T20:28:36.286Z,97094.84
2023-03-17T20:31:08.068Z,97099.78
2023-03-17T20:33:37.577Z,97094.19
2023-03-17T20:36:06.299Z,97086.50
2023-03-17T20:38:37.444Z,97068.84
2023-03-17T20:41:07.626Z,97093.25
2023-03-17T20:43:37.922Z,97084.66
2023-03-17T20:46:09.357Z,97089.94
2023-03-17T20:48:38.503Z,97079.28
2023-03-17T20:51:07.109Z,97079.56
2023-03-17T20:53:36.285Z,97078.63
2023-03-17T20:56:05.370Z,97089.81
2023-03-17T20:58:34.022Z,97086.03
2023-03-17T21:01:02.845Z,97087.25
2023-03-17T21:03:32.863Z,97080.41
2023-03-17T21:06:01.495Z,97093.00
2023-03-17T21:08:29.751Z,97092.53
2023-03-17T21:10:59.025Z,97084.25
2023-03-17T21:13:27.656Z,97100.16
2023-03-17T21:15:56.848Z,97103.00
2023-03-17T21:18:25.497Z,97102.69
2023-03-17T21:20:56.067Z,97107.81
2023-03-17T21:23:24.825Z,97097.69
2023-03-17T21:25:56.977Z,97117.03
2023-03-17T21:28:25.366Z,97109.47
2023-03-17T21:30:53.781Z,97116.88
2023-03-17T21:33:22.587Z,97115.13
2023-03-17T21:35:51.082Z,97119.72
2023-03-17T21:38:21.554Z,97126.66
2023-03-17T21:40:50.353Z,97120.66
2023-03-17T21:43:18.930Z,97110.75
2023-03-17T21:45:47.084Z,97111.41
2023-03-17T21:48:15.729Z,97118.03
2023-03-17T21:50:44.687Z,97121.69
2023-03-17T21:53:16.310Z,97132.44
2023-03-17T21:55:45.801Z,97132.56
2023-03-17T21:58:13.884Z,97131.28
2023-03-17T22:00:45.678Z,97123.22
2023-03-17T22:03:14.273Z,97124.31
2023-03-17T22:05:42.849Z,97116.34
2023-03-17T22:08:11.159Z,97105.81
2023-03-17T22:10:40.413Z,97118.56
2023-03-17T22:13:10.493Z,97098.34
2023-03-17T22:15:38.900Z,97109.06
2023-03-17T22:18:07.182Z,97114.81
2023-03-17T22:20:35.836Z,97102.97
2023-03-17T22:23:04.579Z,97091.03
2023-03-17T22:25:32.859Z,97085.88
2023-03-17T22:28:01.945Z,97093.72
2023-03-17T22:30:31.853Z,97076.34
2023-03-17T22:33:00.201Z,97095.78
2023-03-17T22:35:28.872Z,97088.47
2023-03-17T22:37:57.345Z,97088.78
2023-03-17T22:40:25.421Z,97079.81
2023-03-17T22:42:57.714Z,97079.44
2023-03-17T22:45:26.918Z,97087.72
2023-03-17T22:47:57.035Z,97093.34
2023-03-17T22:50:25.485Z,97096.34
2023-03-17T22:52:53.667Z,97105.94
2023-03-17T22:55:22.164Z,97100.63
2023-03-17T22:57:50.554Z,97102.09
2023-03-17T23:00:19.714Z,97107.94
2023-03-17T23:02:48.666Z,97113.75
2023-03-17T23:05:18.432Z,97113.41
2023-03-17T23:07:53.521Z,97108.59
2023-03-17T23:10:25.296Z,97113.22
2023-03-17T23:12:54.133Z,97112.59
2023-03-17T23:15:22.836Z,97109.34
2023-03-17T23:17:52.483Z,97108.38
2023-03-17T23:20:25.395Z,97112.94
2023-03-17T23:22:54.110Z,97108.06
2023-03-17T23:25:23.290Z,97111.75
2023-03-17T23:27:52.466Z,97106.94
2023-03-17T23:30:21.728Z,97112.56
2023-03-17T23:32:50.361Z,97123.91
2023-03-17T23:35:19.556Z,97115.53
2023-03-17T23:37:50.428Z,97130.94
2023-03-17T23:40:19.030Z,97120.53
2023-03-17T23:42:49.027Z,97118.75
2023-03-17T23:45:18.555Z,97116.09
2023-03-17T23:47:47.905Z,97120.09
2023-03-17T23:50:16.948Z,97118.25
2023-03-17T23:52:45.810Z,97124.38
2023-03-17T23:55:16.118Z,97132.69
2023-03-17T23:57:44.570Z,97119.44
